Kezdőlap
METAR-TAF:

METAR-TAF

Repülőterek :

Jasper megye, Indiana, Amerikai Egyesült Államok

földrajzi szélesség: 40-56-52N, földrajzi hosszúság: 087-10-57W, magasság: 213 m

Jelenlegi meteorológiai megfigyelések

A jelentés 31 perccel ezelõtt készült, 10:35 UTC
Szélcsend
Hőmérséklet 15°C
Páratartalom 100%
Légköri nyomás 1020 hPa
Látótávolság: 11.3 km
Derült ég

METAR: KRZL 211035Z AUTO 00000KT 7SM CLR 15/15 A3013 RMK AO2

Idő: 07:06 (11:06 UTC)


TAF: hiányzik

Meteorológiai megfigyelések és előrejelzések több, mint 4000 repülőtéren (METAR és TAF jelentéseket).

A térképen piros és sárga pontok jelzik az elérhető meteorológiai állomásokat.

Mozgassa az egeret a pont fölött, hogy megjelenjen az állomás neve.

Azután kattintson az időjárási megfigyelések és előrejelzések megtekintéséhez.

A térkép megváltoztatása: kattintson a fekete keresztel jelölt zöld gombra ráközelítéshez, a vonallal jelölt zöld gombra távolításhoz, vagy a zöld nyilakra a szomszédos térképek eléréséhez.


METAR-TAF: